sensor_id;sensor_type;location;lat;lon;timestamp;P1;durP1;ratioP1;P2;durP2;ratioP2
10120;SDS011;5100;45.176;5.714;2023-04-27T00:00:02;3.90;;;2.45;;
10120;SDS011;5100;45.176;5.714;2023-04-27T00:02:34;4.10;;;2.00;;
10120;SDS011;5100;45.176;5.714;2023-04-27T00:05:00;3.12;;;2.03;;
10120;SDS011;5100;45.176;5.714;2023-04-27T00:07:26;2.30;;;1.85;;
10120;SDS011;5100;45.176;5.714;2023-04-27T00:09:52;1.80;;;1.70;;
10120;SDS011;5100;45.176;5.714;2023-04-27T00:12:18;3.28;;;1.90;;
10120;SDS011;5100;45.176;5.714;2023-04-27T00:14:44;2.72;;;2.00;;
10120;SDS011;5100;45.176;5.714;2023-04-27T00:17:10;1.60;;;1.37;;
10120;SDS011;5100;45.176;5.714;2023-04-27T00:19:37;2.45;;;2.22;;
10120;SDS011;5100;45.176;5.714;2023-04-27T00:22:04;2.58;;;1.80;;
10120;SDS011;5100;45.176;5.714;2023-04-27T00:24:30;2.53;;;2.00;;
10120;SDS011;5100;45.176;5.714;2023-04-27T00:26:57;1.87;;;1.77;;
10120;SDS011;5100;45.176;5.714;2023-04-27T00:29:23;2.08;;;1.70;;
10120;SDS011;5100;45.176;5.714;2023-04-27T00:31:49;2.25;;;2.00;;
10120;SDS011;5100;45.176;5.714;2023-04-27T00:34:15;2.58;;;1.92;;
10120;SDS011;5100;45.176;5.714;2023-04-27T00:36:41;3.00;;;1.87;;
10120;SDS011;5100;45.176;5.714;2023-04-27T00:39:07;2.80;;;2.20;;
10120;SDS011;5100;45.176;5.714;2023-04-27T00:41:37;2.45;;;2.25;;
10120;SDS011;5100;45.176;5.714;2023-04-27T00:44:06;1.85;;;1.75;;
10120;SDS011;5100;45.176;5.714;2023-04-27T00:46:33;2.80;;;1.70;;
10120;SDS011;5100;45.176;5.714;2023-04-27T00:49:00;3.05;;;1.95;;
10120;SDS011;5100;45.176;5.714;2023-04-27T00:51:26;2.65;;;1.75;;
10120;SDS011;5100;45.176;5.714;2023-04-27T00:53:57;2.90;;;1.90;;
10120;SDS011;5100;45.176;5.714;2023-04-27T00:56:24;1.85;;;1.73;;
10120;SDS011;5100;45.176;5.714;2023-04-27T00:58:50;3.20;;;1.85;;
10120;SDS011;5100;45.176;5.714;2023-04-27T01:01:17;2.08;;;1.73;;
10120;SDS011;5100;45.176;5.714;2023-04-27T01:03:45;2.37;;;1.80;;
10120;SDS011;5100;45.176;5.714;2023-04-27T01:06:11;1.92;;;1.70;;
10120;SDS011;5100;45.176;5.714;2023-04-27T01:08:37;1.80;;;1.70;;
10120;SDS011;5100;45.176;5.714;2023-04-27T01:11:03;2.40;;;1.80;;
10120;SDS011;5100;45.176;5.714;2023-04-27T01:13:30;4.37;;;2.20;;
10120;SDS011;5100;45.176;5.714;2023-04-27T01:15:56;1.95;;;1.80;;
10120;SDS011;5100;45.176;5.714;2023-04-27T01:18:22;3.15;;;2.00;;
10120;SDS011;5100;45.176;5.714;2023-04-27T01:20:48;3.05;;;1.90;;
10120;SDS011;5100;45.176;5.714;2023-04-27T01:23:14;1.65;;;1.55;;
10120;SDS011;5100;45.176;5.714;2023-04-27T01:25:41;1.83;;;1.73;;
10120;SDS011;5100;45.176;5.714;2023-04-27T01:28:07;2.28;;;2.00;;
10120;SDS011;5100;45.176;5.714;2023-04-27T01:30:36;2.62;;;1.67;;
10120;SDS011;5100;45.176;5.714;2023-04-27T01:33:02;2.95;;;2.00;;
10120;SDS011;5100;45.176;5.714;2023-04-27T01:35:28;3.08;;;1.95;;
10120;SDS011;5100;45.176;5.714;2023-04-27T01:37:58;4.00;;;2.15;;
10120;SDS011;5100;45.176;5.714;2023-04-27T01:40:24;2.28;;;2.08;;
10120;SDS011;5100;45.176;5.714;2023-04-27T01:42:52;3.00;;;2.30;;
10120;SDS011;5100;45.176;5.714;2023-04-27T01:45:18;3.08;;;2.25;;
10120;SDS011;5100;45.176;5.714;2023-04-27T01:47:44;2.28;;;1.95;;
10120;SDS011;5100;45.176;5.714;2023-04-27T01:50:10;2.55;;;2.10;;
10120;SDS011;5100;45.176;5.714;2023-04-27T01:52:37;3.17;;;2.05;;
10120;SDS011;5100;45.176;5.714;2023-04-27T01:55:04;1.80;;;1.70;;
10120;SDS011;5100;45.176;5.714;2023-04-27T01:57:30;2.42;;;2.22;;
10120;SDS011;5100;45.176;5.714;2023-04-27T01:59:58;5.22;;;2.10;;
10120;SDS011;5100;45.176;5.714;2023-04-27T02:02:24;5.62;;;2.10;;
10120;SDS011;5100;45.176;5.714;2023-04-27T02:04:50;3.47;;;1.85;;
10120;SDS011;5100;45.176;5.714;2023-04-27T02:07:17;2.12;;;1.90;;
10120;SDS011;5100;45.176;5.714;2023-04-27T02:09:43;3.12;;;2.20;;
10120;SDS011;5100;45.176;5.714;2023-04-27T02:12:10;3.20;;;1.92;;
10120;SDS011;5100;45.176;5.714;2023-04-27T02:14:36;2.62;;;1.70;;
10120;SDS011;5100;45.176;5.714;2023-04-27T02:17:03;2.47;;;2.00;;
10120;SDS011;5100;45.176;5.714;2023-04-27T02:19:29;2.25;;;2.00;;
10120;SDS011;5100;45.176;5.714;2023-04-27T02:21:55;2.40;;;1.90;;
10120;SDS011;5100;45.176;5.714;2023-04-27T02:24:22;4.22;;;1.98;;
10120;SDS011;5100;45.176;5.714;2023-04-27T02:26:48;2.12;;;2.00;;
10120;SDS011;5100;45.176;5.714;2023-04-27T02:29:14;2.40;;;2.00;;
10120;SDS011;5100;45.176;5.714;2023-04-27T02:31:41;1.90;;;1.80;;
10120;SDS011;5100;45.176;5.714;2023-04-27T02:34:07;2.83;;;2.30;;
10120;SDS011;5100;45.176;5.714;2023-04-27T02:36:33;3.37;;;2.00;;
10120;SDS011;5100;45.176;5.714;2023-04-27T02:38:59;3.37;;;1.95;;
10120;SDS011;5100;45.176;5.714;2023-04-27T02:41:26;2.50;;;1.73;;
10120;SDS011;5100;45.176;5.714;2023-04-27T02:43:55;1.75;;;1.62;;
10120;SDS011;5100;45.176;5.714;2023-04-27T02:46:22;2.25;;;2.00;;
10120;SDS011;5100;45.176;5.714;2023-04-27T02:48:49;1.98;;;1.75;;
10120;SDS011;5100;45.176;5.714;2023-04-27T02:51:15;2.65;;;1.77;;
10120;SDS011;5100;45.176;5.714;2023-04-27T02:53:41;2.45;;;1.65;;
10120;SDS011;5100;45.176;5.714;2023-04-27T02:56:07;2.17;;;1.70;;
10120;SDS011;5100;45.176;5.714;2023-04-27T02:58:33;2.62;;;1.70;;
10120;SDS011;5100;45.176;5.714;2023-04-27T03:00:59;3.47;;;1.95;;
10120;SDS011;5100;45.176;5.714;2023-04-27T03:03:26;1.95;;;1.75;;
10120;SDS011;5100;45.176;5.714;2023-04-27T03:05:51;3.45;;;1.83;;
10120;SDS011;5100;45.176;5.714;2023-04-27T03:08:17;2.58;;;1.80;;
10120;SDS011;5100;45.176;5.714;2023-04-27T03:10:44;1.87;;;1.62;;
10120;SDS011;5100;45.176;5.714;2023-04-27T03:13:10;3.75;;;2.00;;
10120;SDS011;5100;45.176;5.714;2023-04-27T03:15:36;3.30;;;1.77;;
10120;SDS011;5100;45.176;5.714;2023-04-27T03:18:02;2.45;;;1.98;;
10120;SDS011;5100;45.176;5.714;2023-04-27T03:20:28;1.98;;;1.70;;
10120;SDS011;5100;45.176;5.714;2023-04-27T03:22:54;2.37;;;1.70;;
10120;SDS011;5100;45.176;5.714;2023-04-27T03:25:20;2.08;;;1.90;;
10120;SDS011;5100;45.176;5.714;2023-04-27T03:27:47;2.20;;;1.70;;
10120;SDS011;5100;45.176;5.714;2023-04-27T03:30:13;2.97;;;1.90;;
10120;SDS011;5100;45.176;5.714;2023-04-27T03:32:39;1.60;;;1.50;;
10120;SDS011;5100;45.176;5.714;2023-04-27T03:35:05;1.95;;;1.75;;
10120;SDS011;5100;45.176;5.714;2023-04-27T03:37:32;1.77;;;1.67;;
10120;SDS011;5100;45.176;5.714;2023-04-27T03:39:59;2.03;;;1.70;;
10120;SDS011;5100;45.176;5.714;2023-04-27T03:42:25;2.53;;;1.67;;
10120;SDS011;5100;45.176;5.714;2023-04-27T03:44:51;2.45;;;1.62;;
10120;SDS011;5100;45.176;5.714;2023-04-27T03:47:17;2.92;;;2.12;;
10120;SDS011;5100;45.176;5.714;2023-04-27T03:49:43;2.05;;;1.85;;
10120;SDS011;5100;45.176;5.714;2023-04-27T03:52:09;2.83;;;1.90;;
10120;SDS011;5100;45.176;5.714;2023-04-27T03:54:35;4.20;;;1.77;;
10120;SDS011;5100;45.176;5.714;2023-04-27T03:57:01;3.03;;;2.00;;
10120;SDS011;5100;45.176;5.714;2023-04-27T03:59:28;2.07;;;1.77;;
10120;SDS011;5100;45.176;5.714;2023-04-27T04:01:55;2.17;;;1.90;;
10120;SDS011;5100;45.176;5.714;2023-04-27T04:04:22;2.40;;;1.80;;
10120;SDS011;5100;45.176;5.714;2023-04-27T04:06:48;2.85;;;1.70;;
10120;SDS011;5100;45.176;5.714;2023-04-27T04:09:14;4.07;;;1.80;;
10120;SDS011;5100;45.176;5.714;2023-04-27T04:11:41;2.15;;;1.60;;
10120;SDS011;5100;45.176;5.714;2023-04-27T04:14:08;2.62;;;1.80;;
10120;SDS011;5100;45.176;5.714;2023-04-27T04:16:34;1.98;;;1.87;;
10120;SDS011;5100;45.176;5.714;2023-04-27T04:19:00;3.35;;;1.85;;
10120;SDS011;5100;45.176;5.714;2023-04-27T04:21:26;2.08;;;1.95;;
10120;SDS011;5100;45.176;5.714;2023-04-27T04:23:52;2.22;;;2.03;;
10120;SDS011;5100;45.176;5.714;2023-04-27T04:26:19;2.00;;;1.90;;
10120;SDS011;5100;45.176;5.714;2023-04-27T04:28:48;1.92;;;1.83;;
10120;SDS011;5100;45.176;5.714;2023-04-27T04:31:14;2.65;;;1.92;;
10120;SDS011;5100;45.176;5.714;2023-04-27T04:33:42;4.10;;;1.98;;
10120;SDS011;5100;45.176;5.714;2023-04-27T04:36:08;2.25;;;2.00;;
10120;SDS011;5100;45.176;5.714;2023-04-27T04:38:35;2.53;;;1.87;;
10120;SDS011;5100;45.176;5.714;2023-04-27T04:41:01;4.40;;;1.80;;
10120;SDS011;5100;45.176;5.714;2023-04-27T04:43:29;3.30;;;1.98;;
10120;SDS011;5100;45.176;5.714;2023-04-27T04:45:55;2.75;;;2.17;;
10120;SDS011;5100;45.176;5.714;2023-04-27T04:48:22;3.12;;;2.33;;
10120;SDS011;5100;45.176;5.714;2023-04-27T04:50:48;3.70;;;2.33;;
10120;SDS011;5100;45.176;5.714;2023-04-27T04:53:14;2.43;;;2.00;;
10120;SDS011;5100;45.176;5.714;2023-04-27T04:55:41;4.63;;;2.27;;
10120;SDS011;5100;45.176;5.714;2023-04-27T04:58:07;4.33;;;2.50;;
10120;SDS011;5100;45.176;5.714;2023-04-27T05:00:34;9.53;;;2.93;;
10120;SDS011;5100;45.176;5.714;2023-04-27T05:03:00;5.70;;;2.83;;
10120;SDS011;5100;45.176;5.714;2023-04-27T05:05:26;3.50;;;2.57;;
10120;SDS011;5100;45.176;5.714;2023-04-27T05:07:52;5.30;;;3.07;;
10120;SDS011;5100;45.176;5.714;2023-04-27T05:10:18;4.60;;;3.03;;
10120;SDS011;5100;45.176;5.714;2023-04-27T05:12:44;5.90;;;2.97;;
10120;SDS011;5100;45.176;5.714;2023-04-27T05:15:10;6.17;;;2.73;;
10120;SDS011;5100;45.176;5.714;2023-04-27T05:17:36;3.83;;;2.53;;
10120;SDS011;5100;45.176;5.714;2023-04-27T05:20:02;3.70;;;2.37;;
10120;SDS011;5100;45.176;5.714;2023-04-27T05:22:29;3.27;;;2.13;;
10120;SDS011;5100;45.176;5.714;2023-04-27T05:24:55;3.20;;;2.37;;
10120;SDS011;5100;45.176;5.714;2023-04-27T05:27:21;4.27;;;2.40;;
10120;SDS011;5100;45.176;5.714;2023-04-27T05:29:47;4.67;;;2.27;;
10120;SDS011;5100;45.176;5.714;2023-04-27T05:32:14;1.73;;;1.63;;
10120;SDS011;5100;45.176;5.714;2023-04-27T05:34:40;2.13;;;1.87;;
10120;SDS011;5100;45.176;5.714;2023-04-27T05:37:08;3.40;;;2.13;;
10120;SDS011;5100;45.176;5.714;2023-04-27T05:39:34;3.97;;;2.20;;
10120;SDS011;5100;45.176;5.714;2023-04-27T05:42:00;4.62;;;2.10;;
10120;SDS011;5100;45.176;5.714;2023-04-27T05:44:27;3.08;;;1.83;;
10120;SDS011;5100;45.176;5.714;2023-04-27T05:46:54;3.28;;;2.08;;
10120;SDS011;5100;45.176;5.714;2023-04-27T05:49:23;2.50;;;1.80;;
10120;SDS011;5100;45.176;5.714;2023-04-27T05:51:49;3.70;;;2.42;;
10120;SDS011;5100;45.176;5.714;2023-04-27T05:54:16;3.80;;;2.17;;
10120;SDS011;5100;45.176;5.714;2023-04-27T05:56:42;3.42;;;2.45;;
10120;SDS011;5100;45.176;5.714;2023-04-27T05:59:08;4.75;;;2.05;;
10120;SDS011;5100;45.176;5.714;2023-04-27T06:01:34;3.40;;;2.10;;
10120;SDS011;5100;45.176;5.714;2023-04-27T06:04:01;4.40;;;2.08;;
10120;SDS011;5100;45.176;5.714;2023-04-27T06:06:29;1.70;;;1.60;;
10120;SDS011;5100;45.176;5.714;2023-04-27T06:08:57;4.03;;;2.30;;
10120;SDS011;5100;45.176;5.714;2023-04-27T06:11:23;3.80;;;1.90;;
10120;SDS011;5100;45.176;5.714;2023-04-27T06:13:49;3.80;;;2.65;;
10120;SDS011;5100;45.176;5.714;2023-04-27T06:16:15;2.72;;;2.28;;
10120;SDS011;5100;45.176;5.714;2023-04-27T06:18:41;4.22;;;3.10;;
10120;SDS011;5100;45.176;5.714;2023-04-27T06:21:07;3.12;;;2.80;;
10120;SDS011;5100;45.176;5.714;2023-04-27T06:23:33;4.03;;;3.10;;
10120;SDS011;5100;45.176;5.714;2023-04-27T06:26:00;7.95;;;3.55;;
10120;SDS011;5100;45.176;5.714;2023-04-27T06:28:26;2.55;;;2.35;;
10120;SDS011;5100;45.176;5.714;2023-04-27T06:30:52;3.97;;;2.05;;
10120;SDS011;5100;45.176;5.714;2023-04-27T06:33:19;3.30;;;1.90;;
10120;SDS011;5100;45.176;5.714;2023-04-27T06:35:45;2.78;;;2.35;;
10120;SDS011;5100;45.176;5.714;2023-04-27T06:38:11;3.90;;;2.80;;
10120;SDS011;5100;45.176;5.714;2023-04-27T06:40:37;4.28;;;2.45;;
10120;SDS011;5100;45.176;5.714;2023-04-27T06:43:03;3.50;;;2.60;;
10120;SDS011;5100;45.176;5.714;2023-04-27T06:45:29;3.08;;;2.40;;
10120;SDS011;5100;45.176;5.714;2023-04-27T06:47:56;3.85;;;2.37;;
10120;SDS011;5100;45.176;5.714;2023-04-27T06:50:21;2.92;;;2.33;;
10120;SDS011;5100;45.176;5.714;2023-04-27T06:52:47;3.35;;;2.75;;
10120;SDS011;5100;45.176;5.714;2023-04-27T06:55:14;9.05;;;2.65;;
10120;SDS011;5100;45.176;5.714;2023-04-27T06:57:40;3.25;;;2.95;;
10120;SDS011;5100;45.176;5.714;2023-04-27T07:00:06;4.15;;;2.83;;
10120;SDS011;5100;45.176;5.714;2023-04-27T07:02:33;4.70;;;3.00;;
10120;SDS011;5100;45.176;5.714;2023-04-27T07:04:59;4.35;;;3.30;;
10120;SDS011;5100;45.176;5.714;2023-04-27T07:07:25;4.70;;;2.95;;
10120;SDS011;5100;45.176;5.714;2023-04-27T07:09:51;4.78;;;3.17;;
10120;SDS011;5100;45.176;5.714;2023-04-27T07:12:17;4.15;;;3.00;;
10120;SDS011;5100;45.176;5.714;2023-04-27T07:14:43;4.45;;;2.47;;
10120;SDS011;5100;45.176;5.714;2023-04-27T07:17:10;2.90;;;2.60;;
10120;SDS011;5100;45.176;5.714;2023-04-27T07:19:36;3.45;;;2.30;;
10120;SDS011;5100;45.176;5.714;2023-04-27T07:22:02;3.33;;;2.20;;
10120;SDS011;5100;45.176;5.714;2023-04-27T07:24:28;3.78;;;2.42;;
10120;SDS011;5100;45.176;5.714;2023-04-27T07:26:54;2.90;;;2.25;;
10120;SDS011;5100;45.176;5.714;2023-04-27T07:29:22;2.35;;;1.98;;
10120;SDS011;5100;45.176;5.714;2023-04-27T07:31:48;3.42;;;2.25;;
10120;SDS011;5100;45.176;5.714;2023-04-27T07:34:14;4.12;;;1.90;;
10120;SDS011;5100;45.176;5.714;2023-04-27T07:36:40;4.22;;;1.92;;
10120;SDS011;5100;45.176;5.714;2023-04-27T07:39:07;4.20;;;2.03;;
10120;SDS011;5100;45.176;5.714;2023-04-27T07:41:33;1.95;;;1.75;;
10120;SDS011;5100;45.176;5.714;2023-04-27T07:43:59;3.45;;;2.17;;
10120;SDS011;5100;45.176;5.714;2023-04-27T07:46:25;4.45;;;2.05;;
10120;SDS011;5100;45.176;5.714;2023-04-27T07:48:52;3.00;;;2.00;;
10120;SDS011;5100;45.176;5.714;2023-04-27T07:51:19;2.53;;;2.05;;
10120;SDS011;5100;45.176;5.714;2023-04-27T07:53:46;2.03;;;1.92;;
10120;SDS011;5100;45.176;5.714;2023-04-27T07:56:12;2.53;;;1.83;;
10120;SDS011;5100;45.176;5.714;2023-04-27T07:58:37;1.87;;;1.77;;
10120;SDS011;5100;45.176;5.714;2023-04-27T08:01:04;2.08;;;1.80;;
10120;SDS011;5100;45.176;5.714;2023-04-27T08:03:30;3.37;;;2.17;;
10120;SDS011;5100;45.176;5.714;2023-04-27T08:05:56;1.98;;;1.87;;
10120;SDS011;5100;45.176;5.714;2023-04-27T08:08:22;3.40;;;1.98;;
10120;SDS011;5100;45.176;5.714;2023-04-27T08:10:48;3.37;;;1.90;;
10120;SDS011;5100;45.176;5.714;2023-04-27T08:13:14;5.75;;;2.00;;
10120;SDS011;5100;45.176;5.714;2023-04-27T08:15:41;4.12;;;2.00;;
10120;SDS011;5100;45.176;5.714;2023-04-27T08:18:07;2.53;;;1.65;;
10120;SDS011;5100;45.176;5.714;2023-04-27T08:20:33;2.95;;;2.37;;
10120;SDS011;5100;45.176;5.714;2023-04-27T08:22:59;2.65;;;2.15;;
10120;SDS011;5100;45.176;5.714;2023-04-27T08:25:25;2.37;;;2.17;;
10120;SDS011;5100;45.176;5.714;2023-04-27T08:28:00;3.97;;;1.90;;
10120;SDS011;5100;45.176;5.714;2023-04-27T08:30:26;2.22;;;1.75;;
10120;SDS011;5100;45.176;5.714;2023-04-27T08:32:52;3.08;;;2.10;;
10120;SDS011;5100;45.176;5.714;2023-04-27T08:35:18;2.78;;;2.37;;
10120;SDS011;5100;45.176;5.714;2023-04-27T08:37:45;4.10;;;2.10;;
10120;SDS011;5100;45.176;5.714;2023-04-27T08:40:11;1.95;;;1.65;;
10120;SDS011;5100;45.176;5.714;2023-04-27T08:42:37;2.97;;;1.83;;
10120;SDS011;5100;45.176;5.714;2023-04-27T08:45:07;2.08;;;1.62;;
10120;SDS011;5100;45.176;5.714;2023-04-27T08:47:33;2.95;;;1.85;;
10120;SDS011;5100;45.176;5.714;2023-04-27T08:49:59;2.75;;;1.90;;
10120;SDS011;5100;45.176;5.714;2023-04-27T08:52:26;2.80;;;1.90;;
10120;SDS011;5100;45.176;5.714;2023-04-27T08:54:53;4.80;;;2.00;;
10120;SDS011;5100;45.176;5.714;2023-04-27T08:57:18;2.17;;;1.95;;
10120;SDS011;5100;45.176;5.714;2023-04-27T08:59:45;1.90;;;1.80;;
10120;SDS011;5100;45.176;5.714;2023-04-27T09:02:23;2.25;;;1.90;;
10120;SDS011;5100;45.176;5.714;2023-04-27T09:04:51;2.08;;;1.92;;
10120;SDS011;5100;45.176;5.714;2023-04-27T09:07:17;2.45;;;2.22;;
10120;SDS011;5100;45.176;5.714;2023-04-27T09:09:43;3.50;;;2.25;;
10120;SDS011;5100;45.176;5.714;2023-04-27T09:12:14;2.25;;;1.55;;
10120;SDS011;5100;45.176;5.714;2023-04-27T09:14:40;3.33;;;1.70;;
10120;SDS011;5100;45.176;5.714;2023-04-27T09:17:07;2.90;;;1.70;;
10120;SDS011;5100;45.176;5.714;2023-04-27T09:19:34;1.70;;;1.60;;
10120;SDS011;5100;45.176;5.714;2023-04-27T09:22:04;1.92;;;1.60;;
10120;SDS011;5100;45.176;5.714;2023-04-27T09:24:31;1.52;;;1.40;;
10120;SDS011;5100;45.176;5.714;2023-04-27T09:26:58;2.83;;;1.75;;
10120;SDS011;5100;45.176;5.714;2023-04-27T09:29:34;4.00;;;1.75;;
10120;SDS011;5100;45.176;5.714;2023-04-27T09:32:12;1.58;;;1.48;;
10120;SDS011;5100;45.176;5.714;2023-04-27T09:34:43;1.58;;;1.48;;
10120;SDS011;5100;45.176;5.714;2023-04-27T09:37:10;2.03;;;1.40;;
10120;SDS011;5100;45.176;5.714;2023-04-27T09:39:37;2.65;;;1.40;;
10120;SDS011;5100;45.176;5.714;2023-04-27T09:42:03;1.48;;;1.37;;
10120;SDS011;5100;45.176;5.714;2023-04-27T09:44:30;1.10;;;1.10;;
10120;SDS011;5100;45.176;5.714;2023-04-27T09:46:57;1.52;;;1.48;;
10120;SDS011;5100;45.176;5.714;2023-04-27T09:49:25;1.70;;;1.30;;
10120;SDS011;5100;45.176;5.714;2023-04-27T09:51:53;1.50;;;1.40;;
10120;SDS011;5100;45.176;5.714;2023-04-27T09:54:21;1.70;;;1.60;;
10120;SDS011;5100;45.176;5.714;2023-04-27T10:02:23;2.03;;;1.30;;
10120;SDS011;5100;45.176;5.714;2023-04-27T10:05:04;1.90;;;1.20;;
10120;SDS011;5100;45.176;5.714;2023-04-27T10:07:37;1.73;;;1.30;;
10120;SDS011;5100;45.176;5.714;2023-04-27T10:10:06;4.18;;;1.30;;
10120;SDS011;5100;45.176;5.714;2023-04-27T10:12:41;1.30;;;1.20;;
10120;SDS011;5100;45.176;5.714;2023-04-27T10:15:11;1.40;;;1.30;;
10120;SDS011;5100;45.176;5.714;2023-04-27T10:17:46;1.20;;;1.10;;
10120;SDS011;5100;45.176;5.714;2023-04-27T10:20:14;2.55;;;1.40;;
10120;SDS011;5100;45.176;5.714;2023-04-27T10:22:44;2.55;;;1.58;;
10120;SDS011;5100;45.176;5.714;2023-04-27T10:25:12;1.87;;;1.27;;
10120;SDS011;5100;45.176;5.714;2023-04-27T10:27:54;1.20;;;1.08;;
10120;SDS011;5100;45.176;5.714;2023-04-27T10:30:22;1.52;;;1.20;;
10120;SDS011;5100;45.176;5.714;2023-04-27T10:32:54;1.73;;;1.20;;
10120;SDS011;5100;45.176;5.714;2023-04-27T10:35:22;1.12;;;1.12;;
10120;SDS011;5100;45.176;5.714;2023-04-27T10:38:04;1.25;;;1.00;;
10120;SDS011;5100;45.176;5.714;2023-04-27T10:40:32;1.52;;;1.20;;
10120;SDS011;5100;45.176;5.714;2023-04-27T10:43:07;1.33;;;1.23;;
10120;SDS011;5100;45.176;5.714;2023-04-27T10:45:43;3.55;;;1.30;;
10120;SDS011;5100;45.176;5.714;2023-04-27T10:48:13;1.30;;;1.10;;
10120;SDS011;5100;45.176;5.714;2023-04-27T10:50:40;1.80;;;1.30;;
10120;SDS011;5100;45.176;5.714;2023-04-27T10:53:06;1.50;;;1.10;;
10120;SDS011;5100;45.176;5.714;2023-04-27T10:55:34;5.22;;;1.30;;
10120;SDS011;5100;45.176;5.714;2023-04-27T10:58:00;1.48;;;1.10;;
10120;SDS011;5100;45.176;5.714;2023-04-27T11:00:28;1.00;;;1.00;;
10120;SDS011;5100;45.176;5.714;2023-04-27T11:03:09;0.82;;;0.82;;
10120;SDS011;5100;45.176;5.714;2023-04-27T11:05:41;1.23;;;1.12;;
10120;SDS011;5100;45.176;5.714;2023-04-27T11:08:12;1.27;;;1.10;;
10120;SDS011;5100;45.176;5.714;2023-04-27T11:10:43;1.30;;;1.20;;
10120;SDS011;5100;45.176;5.714;2023-04-27T11:13:15;1.23;;;1.12;;
10120;SDS011;5100;45.176;5.714;2023-04-27T11:15:53;0.90;;;0.90;;
10120;SDS011;5100;45.176;5.714;2023-04-27T11:18:22;1.00;;;1.00;;
10120;SDS011;5100;45.176;5.714;2023-04-27T11:20:54;1.17;;;1.10;;
10120;SDS011;5100;45.176;5.714;2023-04-27T11:23:35;0.82;;;0.82;;
10120;SDS011;5100;45.176;5.714;2023-04-27T11:26:16;1.67;;;1.45;;
10120;SDS011;5100;45.176;5.714;2023-04-27T11:28:59;1.00;;;1.00;;
10120;SDS011;5100;45.176;5.714;2023-04-27T11:34:08;1.90;;;1.40;;
10120;SDS011;5100;45.176;5.714;2023-04-27T11:36:40;2.47;;;1.17;;
10120;SDS011;5100;45.176;5.714;2023-04-27T11:39:06;1.30;;;1.20;;
10120;SDS011;5100;45.176;5.714;2023-04-27T11:41:34;1.20;;;1.10;;
10120;SDS011;5100;45.176;5.714;2023-04-27T11:44:08;2.50;;;1.52;;
10120;SDS011;5100;45.176;5.714;2023-04-27T11:46:36;3.70;;;1.30;;
10120;SDS011;5100;45.176;5.714;2023-04-27T11:49:03;1.87;;;1.25;;
10120;SDS011;5100;45.176;5.714;2023-04-27T11:51:33;5.05;;;1.95;;
10120;SDS011;5100;45.176;5.714;2023-04-27T11:54:04;2.35;;;1.20;;
10120;SDS011;5100;45.176;5.714;2023-04-27T11:56:40;2.50;;;1.45;;
10120;SDS011;5100;45.176;5.714;2023-04-27T11:59:17;4.45;;;1.98;;
10120;SDS011;5100;45.176;5.714;2023-04-27T12:01:44;4.37;;;1.62;;
10120;SDS011;5100;45.176;5.714;2023-04-27T12:04:11;3.28;;;1.37;;
10120;SDS011;5100;45.176;5.714;2023-04-27T12:06:37;4.12;;;1.80;;
10120;SDS011;5100;45.176;5.714;2023-04-27T12:09:03;1.30;;;1.20;;
10120;SDS011;5100;45.176;5.714;2023-04-27T12:11:29;2.35;;;1.40;;
10120;SDS011;5100;45.176;5.714;2023-04-27T12:13:56;2.92;;;1.33;;
10120;SDS011;5100;45.176;5.714;2023-04-27T12:16:22;1.40;;;1.30;;
10120;SDS011;5100;45.176;5.714;2023-04-27T12:18:48;1.42;;;1.20;;
10120;SDS011;5100;45.176;5.714;2023-04-27T12:21:15;3.90;;;1.77;;
10120;SDS011;5100;45.176;5.714;2023-04-27T12:23:41;6.20;;;1.40;;
10120;SDS011;5100;45.176;5.714;2023-04-27T12:26:08;1.27;;;1.17;;
10120;SDS011;5100;45.176;5.714;2023-04-27T12:28:35;2.15;;;1.10;;
10120;SDS011;5100;45.176;5.714;2023-04-27T12:31:02;1.80;;;1.10;;
10120;SDS011;5100;45.176;5.714;2023-04-27T12:33:29;2.35;;;2.00;;
10120;SDS011;5100;45.176;5.714;2023-04-27T12:35:55;1.08;;;1.02;;
10120;SDS011;5100;45.176;5.714;2023-04-27T12:38:21;3.85;;;1.55;;
10120;SDS011;5100;45.176;5.714;2023-04-27T12:40:47;1.45;;;1.17;;
10120;SDS011;5100;45.176;5.714;2023-04-27T12:43:14;5.07;;;1.10;;
10120;SDS011;5100;45.176;5.714;2023-04-27T12:45:40;2.67;;;1.17;;
10120;SDS011;5100;45.176;5.714;2023-04-27T12:48:07;1.83;;;1.27;;
10120;SDS011;5100;45.176;5.714;2023-04-27T12:50:34;3.28;;;1.10;;
10120;SDS011;5100;45.176;5.714;2023-04-27T12:53:02;2.97;;;1.10;;
10120;SDS011;5100;45.176;5.714;2023-04-27T12:55:28;2.12;;;1.10;;
10120;SDS011;5100;45.176;5.714;2023-04-27T12:57:54;3.03;;;1.30;;
10120;SDS011;5100;45.176;5.714;2023-04-27T13:00:22;1.40;;;1.12;;
10120;SDS011;5100;45.176;5.714;2023-04-27T13:02:49;4.10;;;1.15;;
10120;SDS011;5100;45.176;5.714;2023-04-27T13:05:18;1.20;;;1.10;;
10120;SDS011;5100;45.176;5.714;2023-04-27T13:07:46;1.20;;;1.15;;
10120;SDS011;5100;45.176;5.714;2023-04-27T13:10:12;0.90;;;0.90;;
10120;SDS011;5100;45.176;5.714;2023-04-27T13:12:38;2.58;;;1.08;;
10120;SDS011;5100;45.176;5.714;2023-04-27T13:15:04;1.20;;;1.10;;
10120;SDS011;5100;45.176;5.714;2023-04-27T13:17:32;1.75;;;1.20;;
10120;SDS011;5100;45.176;5.714;2023-04-27T13:19:58;2.53;;;1.12;;
10120;SDS011;5100;45.176;5.714;2023-04-27T13:22:24;1.33;;;1.10;;
10120;SDS011;5100;45.176;5.714;2023-04-27T13:24:50;1.33;;;1.00;;
10120;SDS011;5100;45.176;5.714;2023-04-27T13:27:16;2.05;;;1.10;;
10120;SDS011;5100;45.176;5.714;2023-04-27T13:29:42;1.02;;;1.02;;
10120;SDS011;5100;45.176;5.714;2023-04-27T13:32:08;1.10;;;1.00;;
10120;SDS011;5100;45.176;5.714;2023-04-27T13:34:34;2.25;;;1.50;;
10120;SDS011;5100;45.176;5.714;2023-04-27T13:37:00;1.62;;;1.10;;
10120;SDS011;5100;45.176;5.714;2023-04-27T13:39:26;1.30;;;1.05;;
10120;SDS011;5100;45.176;5.714;2023-04-27T13:41:53;5.00;;;1.10;;
10120;SDS011;5100;45.176;5.714;2023-04-27T13:44:19;5.20;;;1.20;;
10120;SDS011;5100;45.176;5.714;2023-04-27T13:46:45;2.25;;;1.10;;
10120;SDS011;5100;45.176;5.714;2023-04-27T13:49:11;2.00;;;1.00;;
10120;SDS011;5100;45.176;5.714;2023-04-27T13:51:37;1.55;;;1.27;;
10120;SDS011;5100;45.176;5.714;2023-04-27T13:54:05;4.18;;;0.95;;
10120;SDS011;5100;45.176;5.714;2023-04-27T13:56:31;1.17;;;1.10;;
10120;SDS011;5100;45.176;5.714;2023-04-27T13:58:57;0.93;;;0.93;;
10120;SDS011;5100;45.176;5.714;2023-04-27T14:01:23;1.30;;;0.90;;
10120;SDS011;5100;45.176;5.714;2023-04-27T14:03:51;0.80;;;0.80;;
10120;SDS011;5100;45.176;5.714;2023-04-27T14:06:17;1.25;;;0.90;;
10120;SDS011;5100;45.176;5.714;2023-04-27T14:08:43;1.45;;;1.02;;
10120;SDS011;5100;45.176;5.714;2023-04-27T14:11:10;2.72;;;1.00;;
10120;SDS011;5100;45.176;5.714;2023-04-27T14:13:39;1.17;;;1.08;;
10120;SDS011;5100;45.176;5.714;2023-04-27T14:16:05;1.20;;;1.10;;
10120;SDS011;5100;45.176;5.714;2023-04-27T14:18:32;0.93;;;0.93;;
10120;SDS011;5100;45.176;5.714;2023-04-27T14:20:58;2.00;;;1.23;;
10120;SDS011;5100;45.176;5.714;2023-04-27T14:23:24;1.00;;;1.00;;
10120;SDS011;5100;45.176;5.714;2023-04-27T14:25:50;2.78;;;1.00;;
10120;SDS011;5100;45.176;5.714;2023-04-27T14:28:16;0.90;;;0.90;;
10120;SDS011;5100;45.176;5.714;2023-04-27T14:30:42;1.05;;;0.85;;
10120;SDS011;5100;45.176;5.714;2023-04-27T14:33:09;1.12;;;1.00;;
10120;SDS011;5100;45.176;5.714;2023-04-27T14:35:35;1.10;;;1.10;;
10120;SDS011;5100;45.176;5.714;2023-04-27T14:38:01;1.98;;;1.00;;
10120;SDS011;5100;45.176;5.714;2023-04-27T14:40:29;3.12;;;1.10;;
10120;SDS011;5100;45.176;5.714;2023-04-27T14:42:55;1.87;;;1.20;;
10120;SDS011;5100;45.176;5.714;2023-04-27T14:45:22;1.40;;;1.05;;
10120;SDS011;5100;45.176;5.714;2023-04-27T14:47:49;1.90;;;0.95;;
10120;SDS011;5100;45.176;5.714;2023-04-27T14:50:15;2.20;;;1.10;;
10120;SDS011;5100;45.176;5.714;2023-04-27T14:52:41;3.90;;;1.40;;
10120;SDS011;5100;45.176;5.714;2023-04-27T14:55:08;1.48;;;1.10;;
10120;SDS011;5100;45.176;5.714;2023-04-27T14:57:35;1.40;;;1.30;;
10120;SDS011;5100;45.176;5.714;2023-04-27T15:00:10;1.00;;;1.00;;
10120;SDS011;5100;45.176;5.714;2023-04-27T15:02:39;1.77;;;1.25;;
10120;SDS011;5100;45.176;5.714;2023-04-27T15:05:05;1.17;;;1.08;;
10120;SDS011;5100;45.176;5.714;2023-04-27T15:07:31;2.37;;;1.08;;